Time,TemperatureF,DewpointF,PressureIn,WindDirection,WindDirectionDegrees,WindSpeedMPH,WindSpeedGustMPH,Humidity,HourlyPrecipIn,Conditions,Clouds,dailyrainin,SoftwareType,DateUTC
2013-05-26 00:01:00,45.5,36.7,29.87,South,180,6.0,6.0,71,0.00,,,0.00,meteobridge,2013-05-26 04:01:00,
2013-05-26 00:02:00,45.7,36.9,29.87,NW,315,6.9,6.9,71,0.00,,,0.00,meteobridge,2013-05-26 04:02:00,
2013-05-26 00:04:00,45.7,36.9,29.86,South,180,5.4,5.4,71,0.00,,,0.00,meteobridge,2013-05-26 04:04:00,
2013-05-26 00:06:00,45.7,36.9,29.86,NW,315,3.8,5.4,71,0.00,,,0.00,meteobridge,2013-05-26 04:06:00,
2013-05-26 00:11:00,45.9,37.0,29.86,West,270,3.8,5.4,71,0.00,,,0.00,meteobridge,2013-05-26 04:11:00,
2013-05-26 00:17:00,46.2,37.0,29.86,North,0,3.8,3.8,70,0.00,,,0.00,meteobridge,2013-05-26 04:17:00,
2013-05-26 00:23:00,46.0,36.5,29.86,North,0,8.3,8.3,69,0.00,,,0.00,meteobridge,2013-05-26 04:23:00,
2013-05-26 00:28:00,45.9,36.7,29.86,NW,315,12.1,12.1,70,0.00,,,0.00,meteobridge,2013-05-26 04:28:00,
2013-05-26 00:34:00,45.9,36.7,29.86,NW,315,4.5,8.3,70,0.00,,,0.00,meteobridge,2013-05-26 04:34:00,
2013-05-26 00:39:00,46.0,36.9,29.87,West,270,6.0,7.6,70,0.00,,,0.00,meteobridge,2013-05-26 04:39:00,
2013-05-26 00:45:00,46.0,36.9,29.87,SW,225,8.3,8.3,70,0.00,,,0.00,meteobridge,2013-05-26 04:45:00,
2013-05-26 00:51:00,45.5,36.7,29.86,West,270,4.5,6.9,71,0.00,,,0.00,meteobridge,2013-05-26 04:51:00,
2013-05-26 00:56:00,45.9,36.7,29.86,South,180,12.1,12.1,70,0.00,,,0.00,meteobridge,2013-05-26 04:56:00,
2013-05-26 01:02:00,45.7,36.5,29.86,North,0,3.8,5.4,70,0.00,,,0.00,meteobridge,2013-05-26 05:02:00,
2013-05-26 01:08:00,45.7,36.9,29.86,South,180,6.0,6.0,71,0.00,,,0.00,meteobridge,2013-05-26 05:08:00,
2013-05-26 01:13:00,45.7,36.9,29.86,North,0,3.8,3.8,71,0.00,,,0.00,meteobridge,2013-05-26 05:13:00,
2013-05-26 01:19:00,46.0,36.9,29.85,SW,225,11.4,14.5,70,0.00,,,0.00,meteobridge,2013-05-26 05:19:00,
2013-05-26 01:25:00,45.7,36.5,29.85,East,90,9.2,9.2,70,0.00,,,0.00,meteobridge,2013-05-26 05:25:00,
2013-05-26 01:30:00,45.3,36.5,29.85,West,270,8.3,8.3,71,0.00,,,0.00,meteobridge,2013-05-26 05:30:00,
2013-05-26 01:36:00,46.2,36.7,29.85,North,0,9.2,13.6,69,0.00,,,0.00,meteobridge,2013-05-26 05:36:00,
2013-05-26 01:42:00,45.7,36.5,29.85,NW,315,15.2,15.2,70,0.00,,,0.00,meteobridge,2013-05-26 05:42:00,
2013-05-26 01:47:00,46.2,36.7,29.85,West,270,8.3,10.7,69,0.00,,,0.00,meteobridge,2013-05-26 05:47:00,
2013-05-26 01:53:00,46.0,36.5,29.85,West,270,3.8,10.7,69,0.00,,,0.00,meteobridge,2013-05-26 05:53:00,
2013-05-26 01:58:00,45.9,36.7,29.85,West,270,6.9,6.9,70,0.00,,,0.00,meteobridge,2013-05-26 05:58:00,
2013-05-26 02:04:00,46.0,36.9,29.85,West,270,6.9,6.9,70,0.00,,,0.00,meteobridge,2013-05-26 06:04:00,
2013-05-26 02:10:00,46.6,37.0,29.85,North,0,8.3,10.7,69,0.00,,,0.00,meteobridge,2013-05-26 06:10:00,
2013-05-26 02:15:00,46.4,36.9,29.85,NW,315,9.8,9.8,69,0.00,,,0.00,meteobridge,2013-05-26 06:15:00,
2013-05-26 02:21:00,46.9,36.9,29.84,South,180,9.2,14.5,68,0.00,,,0.00,meteobridge,2013-05-26 06:21:00,
2013-05-26 02:27:00,46.8,36.7,29.85,North,0,10.7,12.1,68,0.00,,,0.00,meteobridge,2013-05-26 06:27:00,
2013-05-26 02:32:00,46.4,36.9,29.85,West,270,13.0,13.0,69,0.00,,,0.00,meteobridge,2013-05-26 06:32:00,
2013-05-26 02:38:00,46.9,36.9,29.85,NE,45,6.9,11.4,68,0.00,,,0.00,meteobridge,2013-05-26 06:38:00,
2013-05-26 02:44:00,46.8,36.7,29.85,South,180,6.9,9.2,68,0.00,,,0.00,meteobridge,2013-05-26 06:44:00,
2013-05-26 02:49:00,46.8,36.7,29.85,North,0,5.4,9.2,68,0.00,,,0.00,meteobridge,2013-05-26 06:49:00,
2013-05-26 02:55:00,46.6,37.0,29.85,North,0,6.9,7.6,69,0.00,,,0.00,meteobridge,2013-05-26 06:55:00,
2013-05-26 03:00:00,46.8,37.2,29.85,West,270,5.4,7.6,69,0.00,,,0.00,meteobridge,2013-05-26 07:00:00,
2013-05-26 03:06:00,46.4,37.2,29.85,South,180,3.1,6.9,70,0.00,,,0.00,meteobridge,2013-05-26 07:06:00,
2013-05-26 03:12:00,46.4,37.2,29.85,NW,315,6.0,6.0,70,0.00,,,0.00,meteobridge,2013-05-26 07:12:00,
2013-05-26 03:17:00,46.4,37.2,29.85,North,0,0.0,3.1,70,0.00,,,0.00,meteobridge,2013-05-26 07:17:00,
2013-05-26 03:23:00,46.6,37.4,29.85,North,0,4.5,6.0,70,0.00,,,0.00,meteobridge,2013-05-26 07:23:00,
2013-05-26 03:29:00,46.6,37.0,29.84,North,0,4.5,5.4,69,0.00,,,0.00,meteobridge,2013-05-26 07:29:00,
2013-05-26 03:34:00,46.4,37.2,29.85,North,0,7.6,7.6,70,0.00,,,0.00,meteobridge,2013-05-26 07:34:00,
2013-05-26 03:40:00,46.4,37.2,29.84,West,270,0.0,2.2,70,0.00,,,0.00,meteobridge,2013-05-26 07:40:00,
2013-05-26 03:46:00,46.2,37.4,29.84,West,270,1.6,2.2,71,0.00,,,0.00,meteobridge,2013-05-26 07:46:00,
2013-05-26 03:51:00,46.2,37.4,29.84,West,270,1.6,3.1,71,0.00,,,0.00,meteobridge,2013-05-26 07:51:00,
2013-05-26 03:57:00,46.8,37.6,29.84,North,0,8.3,8.3,70,0.00,,,0.00,meteobridge,2013-05-26 07:57:00,
2013-05-26 04:03:00,46.8,37.6,29.84,North,0,3.8,7.6,70,0.00,,,0.00,meteobridge,2013-05-26 08:03:00,
2013-05-26 04:08:00,46.9,37.6,29.84,NW,315,4.5,7.6,70,0.00,,,0.00,meteobridge,2013-05-26 08:08:00,
2013-05-26 04:14:00,47.1,37.4,29.84,South,180,14.5,14.5,69,0.00,,,0.00,meteobridge,2013-05-26 08:14:00,
2013-05-26 04:19:00,47.5,37.4,29.84,NW,315,9.2,21.3,68,0.00,,,0.00,meteobridge,2013-05-26 08:19:00,
2013-05-26 04:25:00,47.3,37.2,29.85,North,0,4.5,6.0,68,0.00,,,0.00,meteobridge,2013-05-26 08:25:00,
2013-05-26 04:31:00,47.1,37.0,29.85,North,0,13.0,13.0,68,0.00,,,0.00,meteobridge,2013-05-26 08:31:00,
2013-05-26 04:36:00,47.1,37.0,29.85,NW,315,7.6,7.6,68,0.00,,,0.00,meteobridge,2013-05-26 08:36:00,
2013-05-26 04:42:00,47.1,37.0,29.85,North,0,4.5,6.0,68,0.00,,,0.00,meteobridge,2013-05-26 08:42:00,
2013-05-26 04:48:00,47.3,37.2,29.85,North,0,6.0,6.0,68,0.00,,,0.00,meteobridge,2013-05-26 08:48:00,
2013-05-26 04:53:00,47.5,37.4,29.85,NE,45,7.6,13.6,68,0.00,,,0.00,meteobridge,2013-05-26 08:53:00,
2013-05-26 04:59:00,47.1,37.0,29.85,NW,315,3.8,5.4,68,0.00,,,0.00,meteobridge,2013-05-26 08:59:00,
2013-05-26 05:05:00,47.3,37.2,29.86,West,270,3.1,6.9,68,0.00,,,0.00,meteobridge,2013-05-26 09:05:00,
2013-05-26 05:10:00,47.3,37.2,29.86,East,90,1.6,7.6,68,0.00,,,0.00,meteobridge,2013-05-26 09:10:00,
2013-05-26 05:16:00,46.9,37.2,29.86,NW,315,5.4,6.0,69,0.00,,,0.00,meteobridge,2013-05-26 09:16:00,
2013-05-26 05:21:00,47.1,37.0,29.86,West,270,3.1,4.5,68,0.00,,,0.00,meteobridge,2013-05-26 09:21:00,
2013-05-26 05:27:00,46.9,37.2,29.86,West,270,2.2,3.1,69,0.00,,,0.00,meteobridge,2013-05-26 09:27:00,
2013-05-26 05:33:00,46.8,37.6,29.87,West,270,0.0,0.7,70,0.00,,,0.00,meteobridge,2013-05-26 09:33:00,
2013-05-26 05:38:00,46.4,37.6,29.87,West,270,1.6,1.6,71,0.00,,,0.00,meteobridge,2013-05-26 09:38:00,
2013-05-26 05:43:00,46.8,37.6,29.87,West,270,3.1,3.8,70,0.00,,,0.00,meteobridge,2013-05-26 09:43:00,
2013-05-26 05:49:00,47.1,37.8,29.88,West,270,3.1,3.1,70,0.00,,,0.00,meteobridge,2013-05-26 09:49:00,
2013-05-26 05:55:00,47.1,37.4,29.88,NW,315,3.1,3.8,69,0.00,,,0.00,meteobridge,2013-05-26 09:55:00,
2013-05-26 06:00:00,47.5,37.8,29.88,West,270,3.1,6.0,69,0.00,,,0.00,meteobridge,2013-05-26 10:00:00,
2013-05-26 06:06:00,47.3,37.6,29.88,West,270,4.5,6.0,69,0.00,,,0.00,meteobridge,2013-05-26 10:06:00,
2013-05-26 06:11:00,47.3,37.6,29.88,East,90,3.1,8.3,69,0.00,,,0.00,meteobridge,2013-05-26 10:11:00,
2013-05-26 06:17:00,47.3,37.6,29.88,SW,225,6.0,6.9,69,0.00,,,0.00,meteobridge,2013-05-26 10:17:00,
2013-05-26 06:23:00,47.3,37.6,29.89,NW,315,6.0,6.0,69,0.00,,,0.00,meteobridge,2013-05-26 10:23:00,
2013-05-26 06:28:00,47.3,37.6,29.89,West,270,3.8,5.4,69,0.00,,,0.00,meteobridge,2013-05-26 10:28:00,
2013-05-26 06:34:00,47.3,37.6,29.89,NW,315,6.9,6.9,69,0.00,,,0.00,meteobridge,2013-05-26 10:34:00,
2013-05-26 06:40:00,47.5,37.8,29.89,South,180,0.0,3.1,69,0.00,,,0.00,meteobridge,2013-05-26 10:40:00,
2013-05-26 06:45:00,47.3,37.9,29.89,South,180,3.1,3.1,70,0.00,,,0.00,meteobridge,2013-05-26 10:45:00,
2013-05-26 06:51:00,47.3,37.9,29.89,West,270,3.8,3.8,70,0.00,,,0.00,meteobridge,2013-05-26 10:51:00,
2013-05-26 06:57:00,47.7,38.3,29.89,North,0,2.2,5.4,70,0.00,,,0.00,meteobridge,2013-05-26 10:57:00,
2013-05-26 07:02:00,47.8,38.1,29.89,West,270,4.5,4.5,69,0.00,,,0.00,meteobridge,2013-05-26 11:02:00,
2013-05-26 07:08:00,48.2,37.8,29.89,North,0,3.8,4.5,67,0.00,,,0.00,meteobridge,2013-05-26 11:08:00,
2013-05-26 07:14:00,48.2,37.8,29.90,North,0,2.2,4.5,67,0.00,,,0.00,meteobridge,2013-05-26 11:14:00,
2013-05-26 07:19:00,48.4,37.9,29.90,West,270,6.0,6.0,67,0.00,,,0.00,meteobridge,2013-05-26 11:19:00,
2013-05-26 07:25:00,48.9,38.1,29.89,SE,135,8.3,10.7,66,0.00,,,0.00,meteobridge,2013-05-26 11:25:00,
2013-05-26 07:30:00,49.5,38.1,29.89,NW,315,9.2,9.2,65,0.00,,,0.00,meteobridge,2013-05-26 11:30:00,
2013-05-26 07:36:00,49.8,38.5,29.90,West,270,5.4,14.5,65,0.00,,,0.00,meteobridge,2013-05-26 11:36:00,
2013-05-26 07:42:00,50.0,38.3,29.89,East,90,4.5,9.8,64,0.00,,,0.00,meteobridge,2013-05-26 11:42:00,
2013-05-26 07:47:00,50.0,38.3,29.90,North,0,9.2,9.2,64,0.00,,,0.00,meteobridge,2013-05-26 11:47:00,
2013-05-26 07:53:00,50.2,38.1,29.90,West,270,9.8,9.8,63,0.00,,,0.00,meteobridge,2013-05-26 11:53:00,
2013-05-26 07:59:00,50.2,38.5,29.91,South,180,6.9,6.9,64,0.00,,,0.00,meteobridge,2013-05-26 11:59:00,
2013-05-26 08:04:00,50.4,38.3,29.91,West,270,8.3,8.3,63,0.00,,,0.00,meteobridge,2013-05-26 12:04:00,
2013-05-26 08:10:00,50.5,38.5,29.91,North,0,3.8,8.3,63,0.00,,,0.00,meteobridge,2013-05-26 12:10:00,
2013-05-26 08:16:00,50.9,38.8,29.91,West,270,7.6,7.6,63,0.00,,,0.00,meteobridge,2013-05-26 12:16:00,
2013-05-26 08:21:00,50.9,38.8,29.92,NW,315,11.4,11.4,63,0.00,,,0.00,meteobridge,2013-05-26 12:21:00,
2013-05-26 08:27:00,50.9,38.8,29.92,West,270,11.4,15.2,63,0.00,,,0.00,meteobridge,2013-05-26 12:27:00,
2013-05-26 08:32:00,51.1,38.8,29.91,North,0,15.2,15.2,63,0.00,,,0.00,meteobridge,2013-05-26 12:32:00,
2013-05-26 08:38:00,51.3,39.0,29.91,West,270,8.3,13.6,63,0.00,,,0.00,meteobridge,2013-05-26 12:38:00,
2013-05-26 08:44:00,51.8,38.8,29.91,NW,315,7.6,12.1,61,0.00,,,0.00,meteobridge,2013-05-26 12:44:00,
2013-05-26 08:49:00,52.3,39.4,29.91,North,0,10.7,10.7,61,0.00,,,0.00,meteobridge,2013-05-26 12:49:00,
2013-05-26 08:55:00,52.5,39.4,29.92,South,180,9.2,10.7,61,0.00,,,0.00,meteobridge,2013-05-26 12:55:00,
2013-05-26 09:01:00,52.2,38.7,29.91,South,180,9.8,9.8,60,0.00,,,0.00,meteobridge,2013-05-26 13:01:00,
2013-05-26 09:06:00,52.0,39.4,29.92,NW,315,4.5,9.2,62,0.00,,,0.00,meteobridge,2013-05-26 13:06:00,
2013-05-26 09:12:00,51.8,38.3,29.92,South,180,11.4,13.0,60,0.00,,,0.00,meteobridge,2013-05-26 13:12:00,
2013-05-26 09:18:00,51.8,38.3,29.92,NW,315,21.3,21.3,60,0.00,,,0.00,meteobridge,2013-05-26 13:18:00,
2013-05-26 09:23:00,51.8,37.9,29.92,NW,315,16.8,16.8,59,0.00,,,0.00,meteobridge,2013-05-26 13:23:00,
2013-05-26 09:29:00,52.0,38.1,29.92,West,270,12.1,13.6,59,0.00,,,0.00,meteobridge,2013-05-26 13:29:00,
2013-05-26 09:35:00,52.2,38.7,29.92,West,270,11.4,13.0,60,0.00,,,0.00,meteobridge,2013-05-26 13:35:00,
2013-05-26 09:40:00,52.2,37.8,29.92,North,0,14.5,15.2,58,0.00,,,0.00,meteobridge,2013-05-26 13:40:00,
2013-05-26 09:46:00,52.2,38.3,29.92,West,270,10.7,14.5,59,0.00,,,0.00,meteobridge,2013-05-26 13:46:00,
2013-05-26 09:51:00,52.2,38.3,29.93,NW,315,6.9,17.4,59,0.00,,,0.00,meteobridge,2013-05-26 13:51:00,
2013-05-26 09:57:00,52.9,39.4,29.92,SE,135,8.3,8.3,60,0.00,,,0.00,meteobridge,2013-05-26 13:57:00,
2013-05-26 10:03:00,52.5,38.1,29.92,NW,315,18.3,18.3,58,0.00,,,0.00,meteobridge,2013-05-26 14:03:00,
2013-05-26 10:08:00,52.7,38.3,29.92,NW,315,23.5,23.5,58,0.00,,,0.00,meteobridge,2013-05-26 14:08:00,
2013-05-26 10:14:00,53.1,38.3,29.92,North,0,27.3,27.3,57,0.00,,,0.00,meteobridge,2013-05-26 14:14:00,
2013-05-26 10:20:00,53.1,38.3,29.93,North,0,19.7,23.5,57,0.00,,,0.00,meteobridge,2013-05-26 14:20:00,
2013-05-26 10:25:00,54.1,38.3,29.93,South,180,19.7,22.8,55,0.00,,,0.00,meteobridge,2013-05-26 14:25:00,
2013-05-26 10:31:00,54.1,38.3,29.93,West,270,21.3,21.3,55,0.00,,,0.00,meteobridge,2013-05-26 14:31:00,
2013-05-26 10:37:00,54.7,38.3,29.93,SW,225,9.8,13.0,54,0.00,,,0.00,meteobridge,2013-05-26 14:37:00,
2013-05-26 10:42:00,54.9,39.0,29.93,North,0,13.6,13.6,55,0.00,,,0.00,meteobridge,2013-05-26 14:42:00,
2013-05-26 10:48:00,54.0,37.8,29.93,SW,225,16.8,17.4,54,0.00,,,0.00,meteobridge,2013-05-26 14:48:00,
2013-05-26 10:53:00,53.6,36.9,29.93,South,180,23.5,25.9,53,0.00,,,0.00,meteobridge,2013-05-26 14:53:00,
2013-05-26 10:59:00,54.1,37.4,29.93,NW,315,13.6,19.7,53,0.00,,,0.00,meteobridge,2013-05-26 14:59:00,
2013-05-26 11:05:00,55.4,39.9,29.93,SW,225,9.8,10.7,56,0.00,,,0.00,meteobridge,2013-05-26 15:05:00,
2013-05-26 11:10:00,54.9,38.5,29.93,West,270,7.6,17.4,54,0.00,,,0.00,meteobridge,2013-05-26 15:10:00,
2013-05-26 11:16:00,54.0,37.8,29.94,NW,315,13.6,20.6,54,0.00,,,0.00,meteobridge,2013-05-26 15:16:00,
2013-05-26 11:22:00,54.3,37.9,29.94,North,0,9.8,14.5,54,0.00,,,0.00,meteobridge,2013-05-26 15:22:00,
2013-05-26 11:27:00,55.0,38.7,29.93,North,0,10.7,14.5,54,0.00,,,0.00,meteobridge,2013-05-26 15:27:00,
2013-05-26 11:33:00,54.7,38.8,29.94,South,180,17.4,17.4,55,0.00,,,0.00,meteobridge,2013-05-26 15:33:00,
2013-05-26 11:39:00,54.7,38.8,29.94,NW,315,15.9,15.9,55,0.00,,,0.00,meteobridge,2013-05-26 15:39:00,
2013-05-26 11:44:00,55.0,39.2,29.94,SE,135,8.3,17.4,55,0.00,,,0.00,meteobridge,2013-05-26 15:44:00,
2013-05-26 11:50:00,54.9,39.0,29.93,North,0,13.6,14.5,55,0.00,,,0.00,meteobridge,2013-05-26 15:50:00,
2013-05-26 11:55:00,54.9,38.5,29.94,North,0,14.5,22.1,54,0.00,,,0.00,meteobridge,2013-05-26 15:55:00,
2013-05-26 12:01:00,55.2,39.4,29.94,North,0,14.5,14.5,55,0.00,,,0.00,meteobridge,2013-05-26 16:01:00,
2013-05-26 12:07:00,56.3,40.3,29.93,West,270,9.2,12.1,55,0.00,,,0.00,meteobridge,2013-05-26 16:07:00,
2013-05-26 12:12:00,55.4,39.0,29.94,NW,315,12.1,18.3,54,0.00,,,0.00,meteobridge,2013-05-26 16:12:00,
2013-05-26 12:18:00,57.4,40.5,29.94,West,270,25.1,25.1,53,0.00,,,0.00,meteobridge,2013-05-26 16:18:00,
2013-05-26 12:24:00,58.5,41.4,29.94,North,0,7.6,15.9,53,0.00,,,0.00,meteobridge,2013-05-26 16:24:00,
2013-05-26 12:29:00,57.0,40.1,29.94,NW,315,19.0,19.0,53,0.00,,,0.00,meteobridge,2013-05-26 16:29:00,
2013-05-26 12:35:00,57.7,40.3,29.94,NW,315,14.5,15.2,52,0.00,,,0.00,meteobridge,2013-05-26 16:35:00,
2013-05-26 12:41:00,58.5,40.8,29.94,West,270,20.6,20.6,52,0.00,,,0.00,meteobridge,2013-05-26 16:41:00,
2013-05-26 12:46:00,57.4,39.4,29.94,North,0,11.4,20.6,51,0.00,,,0.00,meteobridge,2013-05-26 16:46:00,
2013-05-26 12:52:00,57.4,38.3,29.94,West,270,17.4,17.4,49,0.00,,,0.00,meteobridge,2013-05-26 16:52:00,
2013-05-26 12:58:00,57.6,39.0,29.95,North,0,17.4,17.4,50,0.00,,,0.00,meteobridge,2013-05-26 16:58:00,
2013-05-26 13:03:00,56.3,38.5,29.95,NW,315,21.3,21.3,51,0.00,,,0.00,meteobridge,2013-05-26 17:03:00,
2013-05-26 13:09:00,56.1,38.7,29.96,South,180,22.1,22.1,52,0.00,,,0.00,meteobridge,2013-05-26 17:09:00,
2013-05-26 13:14:00,57.7,39.7,29.96,West,270,18.3,18.3,51,0.00,,,0.00,meteobridge,2013-05-26 17:14:00,
2013-05-26 13:20:00,57.4,39.4,29.96,South,180,15.9,17.4,51,0.00,,,0.00,meteobridge,2013-05-26 17:20:00,
2013-05-26 13:26:00,57.4,39.4,29.96,North,0,15.2,15.2,51,0.00,,,0.00,meteobridge,2013-05-26 17:26:00,
2013-05-26 13:31:00,57.6,37.9,29.96,South,180,19.0,34.9,48,0.00,,,0.00,meteobridge,2013-05-26 17:31:00,
2013-05-26 13:37:00,59.7,39.9,29.95,North,0,17.4,17.4,48,0.00,,,0.00,meteobridge,2013-05-26 17:37:00,
2013-05-26 13:43:00,59.5,39.9,29.96,West,270,11.4,13.0,48,0.00,,,0.00,meteobridge,2013-05-26 17:43:00,
2013-05-26 13:48:00,60.1,39.2,29.95,West,270,12.1,12.1,46,0.00,,,0.00,meteobridge,2013-05-26 17:48:00,
2013-05-26 13:54:00,59.7,38.8,29.96,West,270,20.6,22.8,46,0.00,,,0.00,meteobridge,2013-05-26 17:54:00,
2013-05-26 14:00:00,60.4,39.6,29.96,North,0,7.6,9.8,46,0.00,,,0.00,meteobridge,2013-05-26 18:00:00,
2013-05-26 14:05:00,60.3,39.4,29.96,NW,315,18.3,18.3,46,0.00,,,0.00,meteobridge,2013-05-26 18:05:00,
2013-05-26 14:11:00,59.0,38.8,29.96,NW,315,24.4,24.4,47,0.00,,,0.00,meteobridge,2013-05-26 18:11:00,
2013-05-26 14:16:00,59.0,38.3,29.97,NW,315,22.1,22.1,46,0.00,,,0.00,meteobridge,2013-05-26 18:16:00,
2013-05-26 14:22:00,59.5,38.7,29.97,South,180,12.1,20.6,46,0.00,,,0.00,meteobridge,2013-05-26 18:22:00,
2013-05-26 14:28:00,60.1,39.2,29.96,North,0,15.9,15.9,46,0.00,,,0.00,meteobridge,2013-05-26 18:28:00,
2013-05-26 14:33:00,60.1,39.2,29.97,NW,315,27.3,27.3,46,0.00,,,0.00,meteobridge,2013-05-26 18:33:00,
2013-05-26 14:39:00,59.5,37.0,29.97,West,270,15.9,24.4,43,0.00,,,0.00,meteobridge,2013-05-26 18:39:00,
2013-05-26 14:45:00,60.4,37.8,29.97,NW,315,25.9,26.6,43,0.00,,,0.00,meteobridge,2013-05-26 18:45:00,
2013-05-26 14:50:00,60.3,38.3,29.97,SW,225,19.0,19.0,44,0.00,,,0.00,meteobridge,2013-05-26 18:50:00,
2013-05-26 14:56:00,60.8,37.6,29.97,North,0,19.7,26.6,42,0.00,,,0.00,meteobridge,2013-05-26 18:56:00,
2013-05-26 15:02:00,60.6,38.7,29.97,West,270,20.6,22.1,44,0.00,,,0.00,meteobridge,2013-05-26 19:02:00,
2013-05-26 15:07:00,61.5,39.4,29.97,NW,315,9.8,11.4,44,0.00,,,0.00,meteobridge,2013-05-26 19:07:00,
2013-05-26 15:13:00,62.1,39.4,29.98,NW,315,17.4,17.4,43,0.00,,,0.00,meteobridge,2013-05-26 19:13:00,
2013-05-26 15:18:00,61.3,38.7,29.98,North,0,22.8,22.8,43,0.00,,,0.00,meteobridge,2013-05-26 19:18:00,
2013-05-26 15:24:00,60.4,39.0,29.97,West,270,9.8,15.2,45,0.00,,,0.00,meteobridge,2013-05-26 19:24:00,
2013-05-26 15:30:00,59.7,37.2,29.98,North,0,14.5,25.9,43,0.00,,,0.00,meteobridge,2013-05-26 19:30:00,
2013-05-26 15:35:00,61.2,39.7,29.98,NW,315,8.3,14.5,45,0.00,,,0.00,meteobridge,2013-05-26 19:35:00,
2013-05-26 15:41:00,60.3,38.3,29.98,West,270,19.0,19.7,44,0.00,,,0.00,meteobridge,2013-05-26 19:41:00,
2013-05-26 15:47:00,59.4,39.2,29.99,NW,315,23.5,23.5,47,0.00,,,0.00,meteobridge,2013-05-26 19:47:00,
2013-05-26 15:52:00,60.4,39.0,29.99,West,270,25.9,25.9,45,0.00,,,0.00,meteobridge,2013-05-26 19:52:00,
2013-05-26 15:58:00,59.9,38.5,29.99,North,0,8.3,19.7,45,0.00,,,0.00,meteobridge,2013-05-26 19:58:00,
2013-05-26 16:04:00,60.4,39.6,30.00,South,180,19.0,19.0,46,0.00,,,0.00,meteobridge,2013-05-26 20:04:00,
2013-05-26 16:09:00,59.9,39.6,30.00,North,0,12.1,15.2,47,0.00,,,0.00,meteobridge,2013-05-26 20:09:00,
2013-05-26 16:15:00,60.3,39.4,30.00,North,0,16.8,19.0,46,0.00,,,0.00,meteobridge,2013-05-26 20:15:00,
2013-05-26 16:21:00,58.3,37.6,30.01,North,0,15.2,17.4,46,0.00,,,0.00,meteobridge,2013-05-26 20:21:00,
2013-05-26 16:26:00,58.8,38.7,30.00,West,270,19.7,20.6,47,0.00,,,0.00,meteobridge,2013-05-26 20:26:00,
2013-05-26 16:32:00,59.5,38.7,30.00,SW,225,12.1,14.5,46,0.00,,,0.00,meteobridge,2013-05-26 20:32:00,
2013-05-26 16:37:00,59.7,39.4,30.01,West,270,8.3,9.8,47,0.00,,,0.00,meteobridge,2013-05-26 20:37:00,
2013-05-26 16:43:00,59.4,38.7,30.01,North,0,18.3,18.3,46,0.00,,,0.00,meteobridge,2013-05-26 20:43:00,
2013-05-26 16:49:00,59.0,38.3,30.01,NW,315,13.0,15.2,46,0.00,,,0.00,meteobridge,2013-05-26 20:49:00,
2013-05-26 16:54:00,58.3,37.6,30.02,SW,225,22.8,22.8,46,0.00,,,0.00,meteobridge,2013-05-26 20:54:00,
2013-05-26 17:00:00,58.1,37.4,30.02,West,270,18.3,28.9,46,0.00,,,0.00,meteobridge,2013-05-26 21:00:00,
2013-05-26 17:06:00,59.4,38.7,30.03,North,0,10.7,10.7,46,0.00,,,0.00,meteobridge,2013-05-26 21:06:00,
2013-05-26 17:11:00,58.3,37.0,30.03,North,0,19.7,23.5,45,0.00,,,0.00,meteobridge,2013-05-26 21:11:00,
2013-05-26 17:17:00,59.0,37.0,30.03,South,180,18.3,18.3,44,0.00,,,0.00,meteobridge,2013-05-26 21:17:00,
2013-05-26 17:23:00,59.2,37.2,30.03,SW,225,28.2,28.2,44,0.00,,,0.00,meteobridge,2013-05-26 21:23:00,
2013-05-26 17:28:00,59.7,38.3,30.02,SW,225,23.5,23.5,45,0.00,,,0.00,meteobridge,2013-05-26 21:28:00,
2013-05-26 17:34:00,59.9,38.5,30.03,NW,315,12.1,12.1,45,0.00,,,0.00,meteobridge,2013-05-26 21:34:00,
2013-05-26 17:39:00,58.1,37.4,30.03,NW,315,18.3,22.8,46,0.00,,,0.00,meteobridge,2013-05-26 21:39:00,
2013-05-26 17:45:00,58.8,38.7,30.03,West,270,16.8,21.3,47,0.00,,,0.00,meteobridge,2013-05-26 21:45:00,
2013-05-26 17:51:00,58.8,38.7,30.03,SE,135,20.6,20.6,47,0.00,,,0.00,meteobridge,2013-05-26 21:51:00,
2013-05-26 17:56:00,58.3,38.1,30.03,South,180,22.8,22.8,47,0.00,,,0.00,meteobridge,2013-05-26 21:56:00,
2013-05-26 18:01:00,57.9,37.2,30.03,NW,315,19.0,19.7,46,0.00,,,0.00,meteobridge,2013-05-26 22:01:00,
2013-05-26 18:07:00,58.1,37.4,30.03,NW,315,22.1,22.1,46,0.00,,,0.00,meteobridge,2013-05-26 22:07:00,
2013-05-26 18:13:00,58.5,38.3,30.03,NW,315,9.2,15.2,47,0.00,,,0.00,meteobridge,2013-05-26 22:13:00,
2013-05-26 18:18:00,58.3,37.6,30.03,North,0,17.4,17.4,46,0.00,,,0.00,meteobridge,2013-05-26 22:18:00,
2013-05-26 18:24:00,58.1,37.4,30.04,East,90,9.2,15.9,46,0.00,,,0.00,meteobridge,2013-05-26 22:24:00,
2013-05-26 18:30:00,57.7,37.6,30.04,North,0,8.3,8.3,47,0.00,,,0.00,meteobridge,2013-05-26 22:30:00,
2013-05-26 18:35:00,57.2,37.8,30.04,West,270,7.6,15.9,48,0.00,,,0.00,meteobridge,2013-05-26 22:35:00,
2013-05-26 18:41:00,57.2,38.3,30.04,West,270,2.2,6.0,49,0.00,,,0.00,meteobridge,2013-05-26 22:41:00,
2013-05-26 18:46:00,57.4,38.3,30.05,North,0,6.9,8.3,49,0.00,,,0.00,meteobridge,2013-05-26 22:46:00,
2013-05-26 18:52:00,57.2,38.3,30.05,North,0,6.9,6.9,49,0.00,,,0.00,meteobridge,2013-05-26 22:52:00,
2013-05-26 18:58:00,57.0,39.0,30.06,North,0,9.8,9.8,51,0.00,,,0.00,meteobridge,2013-05-26 22:58:00,
2013-05-26 19:03:00,56.7,39.2,30.06,West,270,7.6,7.6,52,0.00,,,0.00,meteobridge,2013-05-26 23:03:00,
2013-05-26 19:09:00,56.7,39.2,30.06,North,0,7.6,7.6,52,0.00,,,0.00,meteobridge,2013-05-26 23:09:00,
2013-05-26 19:15:00,56.7,38.7,30.06,North,0,4.5,9.2,51,0.00,,,0.00,meteobridge,2013-05-26 23:15:00,
2013-05-26 19:20:00,56.7,39.2,30.06,NW,315,3.8,4.5,52,0.00,,,0.00,meteobridge,2013-05-26 23:20:00,
2013-05-26 19:26:00,56.5,39.0,30.07,North,0,7.6,8.3,52,0.00,,,0.00,meteobridge,2013-05-26 23:26:00,
2013-05-26 19:32:00,55.9,39.0,30.07,NW,315,1.6,5.4,53,0.00,,,0.00,meteobridge,2013-05-26 23:32:00,
2013-05-26 19:37:00,55.6,39.2,30.07,North,0,2.2,3.1,54,0.00,,,0.00,meteobridge,2013-05-26 23:37:00,
2013-05-26 19:43:00,55.2,39.4,30.07,East,90,0.0,0.0,55,0.00,,,0.00,meteobridge,2013-05-26 23:43:00,
2013-05-26 19:48:00,54.0,40.5,30.08,West,270,0.0,0.0,60,0.00,,,0.00,meteobridge,2013-05-26 23:48:00,
2013-05-26 19:54:00,53.4,41.2,30.08,South,180,0.0,1.6,63,0.00,,,0.00,meteobridge,2013-05-26 23:54:00,
2013-05-26 20:00:00,52.9,41.0,30.08,South,180,0.7,2.2,64,0.00,,,0.00,meteobridge,2013-05-27 00:00:00,
2013-05-26 20:05:00,52.5,40.6,30.08,West,270,1.6,1.6,64,0.00,,,0.00,meteobridge,2013-05-27 00:05:00,
2013-05-26 20:10:00,54.9,39.9,30.08,NW,315,3.8,6.9,57,0.00,,,0.00,meteobridge,2013-05-27 00:10:00,
2013-05-26 20:16:00,54.3,39.0,30.08,North,0,3.1,5.4,56,0.00,,,0.00,meteobridge,2013-05-27 00:16:00,
2013-05-26 20:22:00,53.6,38.7,30.09,North,0,0.0,1.6,57,0.00,,,0.00,meteobridge,2013-05-27 00:22:00,
2013-05-26 20:27:00,52.9,39.4,30.09,East,90,0.0,1.6,60,0.00,,,0.00,meteobridge,2013-05-27 00:27:00,
2013-05-26 20:33:00,52.7,40.1,30.09,West,270,0.0,0.0,62,0.00,,,0.00,meteobridge,2013-05-27 00:33:00,
2013-05-26 20:38:00,50.7,40.1,30.09,South,180,0.0,0.0,67,0.00,,,0.00,meteobridge,2013-05-27 00:38:00,
2013-05-26 20:44:00,49.6,39.9,30.09,South,180,0.0,0.0,69,0.00,,,0.00,meteobridge,2013-05-27 00:44:00,
2013-05-26 20:50:00,49.5,39.7,30.09,West,270,0.0,0.0,69,0.00,,,0.00,meteobridge,2013-05-27 00:50:00,
2013-05-26 20:55:00,48.6,39.2,30.09,West,270,0.0,0.0,70,0.00,,,0.00,meteobridge,2013-05-27 00:55:00,
2013-05-26 21:01:00,48.4,39.4,30.09,West,270,0.0,0.0,71,0.00,,,0.00,meteobridge,2013-05-27 01:01:00,
2013-05-26 21:07:00,48.4,39.4,30.10,West,270,0.0,0.0,71,0.00,,,0.00,meteobridge,2013-05-27 01:07:00,
2013-05-26 21:12:00,48.4,39.4,30.10,NE,45,2.2,2.2,71,0.00,,,0.00,meteobridge,2013-05-27 01:12:00,
2013-05-26 21:18:00,48.6,39.6,30.10,West,270,0.0,0.0,71,0.00,,,0.00,meteobridge,2013-05-27 01:18:00,
2013-05-26 21:24:00,47.3,39.4,30.11,West,270,0.0,0.0,74,0.00,,,0.00,meteobridge,2013-05-27 01:24:00,
2013-05-26 21:29:00,46.9,39.0,30.11,West,270,0.0,0.0,74,0.00,,,0.00,meteobridge,2013-05-27 01:29:00,
2013-05-26 21:35:00,47.1,39.6,30.11,East,90,0.0,0.0,75,0.00,,,0.00,meteobridge,2013-05-27 01:35:00,
2013-05-26 21:41:00,47.1,39.6,30.11,South,180,0.0,0.0,75,0.00,,,0.00,meteobridge,2013-05-27 01:41:00,
2013-05-26 21:46:00,46.6,39.4,30.11,South,180,0.0,0.0,76,0.00,,,0.00,meteobridge,2013-05-27 01:46:00,
2013-05-26 21:52:00,45.9,38.7,30.11,North,0,0.0,0.0,76,0.00,,,0.00,meteobridge,2013-05-27 01:52:00,
2013-05-26 21:57:00,45.9,38.7,30.12,North,0,0.0,0.0,76,0.00,,,0.00,meteobridge,2013-05-27 01:57:00,
2013-05-26 22:03:00,45.5,38.7,30.12,North,0,0.0,0.0,77,0.00,,,0.00,meteobridge,2013-05-27 02:03:00,
2013-05-26 22:09:00,44.8,37.9,30.12,North,0,0.0,0.0,77,0.00,,,0.00,meteobridge,2013-05-27 02:09:00,
2013-05-26 22:14:00,44.6,38.1,30.13,North,0,0.0,0.0,78,0.00,,,0.00,meteobridge,2013-05-27 02:14:00,
2013-05-26 22:20:00,44.8,38.7,30.13,North,0,0.0,0.0,79,0.00,,,0.00,meteobridge,2013-05-27 02:20:00,
2013-05-26 22:26:00,44.2,38.8,30.13,North,0,0.0,0.0,81,0.00,,,0.00,meteobridge,2013-05-27 02:26:00,
2013-05-26 22:31:00,44.2,39.0,30.14,North,0,0.0,0.0,82,0.00,,,0.00,meteobridge,2013-05-27 02:31:00,
2013-05-26 22:37:00,44.1,38.8,30.13,East,90,0.0,0.0,82,0.00,,,0.00,meteobridge,2013-05-27 02:37:00,
2013-05-26 22:43:00,43.5,38.5,30.14,East,90,0.0,0.0,82,0.00,,,0.00,meteobridge,2013-05-27 02:43:00,
2013-05-26 22:48:00,43.2,38.1,30.14,East,90,0.0,0.0,82,0.00,,,0.00,meteobridge,2013-05-27 02:48:00,
2013-05-26 22:54:00,43.2,38.3,30.14,East,90,0.0,0.0,83,0.00,,,0.00,meteobridge,2013-05-27 02:54:00,
2013-05-26 22:59:00,43.0,38.1,30.14,East,90,0.0,0.0,83,0.00,,,0.00,meteobridge,2013-05-27 02:59:00,
2013-05-26 23:05:00,43.2,38.3,30.14,East,90,0.0,0.0,83,0.00,,,0.00,meteobridge,2013-05-27 03:05:00,
2013-05-26 23:11:00,43.0,38.1,30.14,West,270,0.0,0.0,83,0.00,,,0.00,meteobridge,2013-05-27 03:11:00,
2013-05-26 23:16:00,42.8,38.3,30.14,North,0,0.0,0.0,84,0.00,,,0.00,meteobridge,2013-05-27 03:16:00,
2013-05-26 23:22:00,42.4,38.3,30.14,North,0,0.0,0.0,85,0.00,,,0.00,meteobridge,2013-05-27 03:22:00,
2013-05-26 23:28:00,42.3,38.1,30.14,North,0,0.0,0.0,85,0.00,,,0.00,meteobridge,2013-05-27 03:28:00,
2013-05-26 23:33:00,42.3,38.1,30.14,North,0,0.0,0.0,85,0.00,,,0.00,meteobridge,2013-05-27 03:33:00,
2013-05-26 23:39:00,42.1,37.9,30.14,North,0,1.6,1.6,85,0.00,,,0.00,meteobridge,2013-05-27 03:39:00,
2013-05-26 23:45:00,42.4,38.5,30.14,East,90,1.6,1.6,86,0.00,,,0.00,meteobridge,2013-05-27 03:45:00,
2013-05-26 23:50:00,42.1,38.1,30.15,East,90,0.7,1.6,86,0.00,,,0.00,meteobridge,2013-05-27 03:50:00,
2013-05-26 23:56:00,42.1,38.1,30.14,East,90,0.0,0.0,86,0.00,,,0.00,meteobridge,2013-05-27 03:56:00,